Time;durP1;ratioP1;P1;durP2;ratioP2;P2;SDS_P1;SDS_P2;PMS_P1;PMS_P2;Temp;Humidity;BMP_temperature;BMP_pressure;BME280_temperature;BME280_humidity;BME280_pressure;Samples;Min_cycle;Max_cycle;Signal;HPM_P1;HPM_P2
2021/08/31 00:02:21;;;;;;;2.27;2.13;;;;;;;12.90;100.00;95739.69;5060025;28;20218;-71
2021/08/31 00:04:49;;;;;;;2.80;2.63;;;;;;;12.92;100.00;95742.97;5053633;28;20227;-71
2021/08/31 00:07:17;;;;;;;1.73;1.63;;;;;;;12.90;100.00;95737.88;5056128;28;20241;-71
2021/08/31 00:09:47;;;;;;;1.90;1.80;;;;;;;12.85;100.00;95744.75;5063520;28;20245;-71
2021/08/31 00:12:17;;;;;;;2.03;1.93;;;;;;;12.90;100.00;95739.69;5061706;28;20222;-71
2021/08/31 00:14:44;;;;;;;2.23;2.03;;;;;;;12.84;100.00;95746.59;5059507;28;20241;-71
2021/08/31 00:17:16;;;;;;;2.27;2.17;;;;;;;12.77;100.00;95746.53;5074442;28;20243;-72
2021/08/31 00:19:44;;;;;;;1.53;1.43;;;;;;;12.71;100.00;95746.50;5061579;28;20226;-71
2021/08/31 00:22:13;;;;;;;2.10;1.53;;;;;;;12.72;100.00;95748.97;5055777;28;20302;-71
2021/08/31 00:24:41;;;;;;;1.70;1.60;;;;;;;12.66;100.00;95744.44;5055534;28;20276;-71
2021/08/31 00:27:10;;;;;;;2.07;1.93;;;;;;;12.62;100.00;95748.50;5066653;28;20218;-72
2021/08/31 00:29:39;;;;;;;2.10;2.00;;;;;;;12.68;100.00;95750.34;5059741;28;20730;-71
2021/08/31 00:32:09;;;;;;;1.57;1.47;;;;;;;12.62;100.00;95748.50;5060148;28;20214;-71
2021/08/31 00:34:37;;;;;;;3.67;1.60;;;;;;;12.62;100.00;95755.59;5060469;28;20319;-71
2021/08/31 00:37:06;;;;;;;2.53;1.57;;;;;;;12.59;100.00;95750.69;5060833;28;20480;-72
2021/08/31 00:39:34;;;;;;;2.03;1.93;;;;;;;12.57;100.00;95745.59;5060886;28;20218;-72
2021/08/31 00:42:02;;;;;;;1.97;1.87;;;;;;;12.59;100.00;95759.47;5057721;28;20712;-71
2021/08/31 00:44:30;;;;;;;2.37;1.93;;;;;;;12.58;100.00;95763.13;5058657;28;20237;-71
2021/08/31 00:47:03;;;;;;;1.73;1.63;;;;;;;12.58;100.00;95757.00;5063993;28;20665;-71
2021/08/31 00:49:32;;;;;;;1.47;1.37;;;;;;;12.61;100.00;95757.44;5060514;28;20436;-72
2021/08/31 00:52:01;;;;;;;1.17;1.07;;;;;;;12.67;100.00;95764.59;5063636;28;20230;-71
2021/08/31 00:54:30;;;;;;;1.37;1.30;;;;;;;12.66;100.00;95765.63;5067017;28;20242;-71
2021/08/31 00:57:00;;;;;;;1.17;1.13;;;;;;;12.67;100.00;95766.44;5052186;28;20287;-71
2021/08/31 00:59:28;;;;;;;0.83;0.83;;;;;;;12.75;100.00;95769.75;5059938;28;20371;-71
2021/08/31 01:01:57;;;;;;;1.97;1.33;;;;;;;12.71;100.00;95768.53;5064548;28;20264;-71
2021/08/31 01:04:28;;;;;;;1.43;1.33;;;;;;;12.76;100.00;95766.09;5060528;28;20222;-72
2021/08/31 01:06:58;;;;;;;1.30;1.13;;;;;;;12.74;100.00;95767.31;5078834;28;20214;-72
2021/08/31 01:09:28;;;;;;;1.00;0.97;;;;;;;12.75;100.00;95768.94;5056979;28;20627;-72
2021/08/31 01:11:57;;;;;;;1.17;1.07;;;;;;;12.73;100.00;95763.84;5058863;28;20306;-71
2021/08/31 01:14:27;;;;;;;1.03;1.03;;;;;;;12.75;100.00;95767.09;5062489;28;20222;-72
2021/08/31 01:16:55;;;;;;;1.90;1.70;;;;;;;12.76;100.00;95768.75;5062514;28;20653;-71
2021/08/31 01:19:29;;;;;;;1.20;1.10;;;;;;;12.75;100.00;95769.75;5062849;28;20234;-72
2021/08/31 01:21:59;;;;;;;1.33;1.23;;;;;;;12.75;100.00;95771.59;5054924;28;20220;-71
2021/08/31 01:24:27;;;;;;;3.50;0.90;;;;;;;12.80;100.00;95771.81;5055762;28;20237;-71
2021/08/31 01:26:59;;;;;;;1.20;1.13;;;;;;;12.76;100.00;95770.56;5057264;28;20249;-72
2021/08/31 01:29:29;;;;;;;1.10;1.10;;;;;;;12.81;100.00;95774.28;5060660;28;20696;-72
2021/08/31 01:31:58;;;;;;;0.97;0.97;;;;;;;12.74;100.00;95768.13;5057860;28;20690;-72
2021/08/31 01:34:25;;;;;;;1.53;1.43;;;;;;;12.74;100.00;95772.59;5058971;28;20231;-72
2021/08/31 01:36:54;;;;;;;1.10;1.07;;;;;;;12.71;100.00;95776.47;5054590;28;20215;-72
2021/08/31 01:39:22;;;;;;;1.57;1.47;;;;;;;12.68;100.00;95771.53;5060194;28;20246;-72
2021/08/31 01:41:50;;;;;;;1.27;0.97;;;;;;;12.70;100.00;95777.44;5059904;28;20223;-71
2021/08/31 01:44:20;;;;;;;1.50;1.17;;;;;;;12.69;100.00;95775.00;5052132;28;20246;-71
2021/08/31 01:46:48;;;;;;;1.20;1.10;;;;;;;12.65;100.00;95774.59;5054848;28;20214;-71
2021/08/31 01:49:16;;;;;;;1.10;1.10;;;;;;;12.65;100.00;95779.06;5055364;28;20253;-71
2021/08/31 01:51:44;;;;;;;1.33;1.30;;;;;;;12.65;100.00;95774.59;5058376;28;20283;-71
2021/08/31 01:54:12;;;;;;;2.20;1.27;;;;;;;12.67;100.00;95777.84;5059465;28;20224;-71
2021/08/31 01:56:40;;;;;;;1.83;1.73;;;;;;;12.65;100.00;95779.06;5064245;28;20363;-71
2021/08/31 01:59:09;;;;;;;0.70;0.70;;;;;;;12.68;100.00;95774.19;5062375;28;20242;-72
2021/08/31 02:01:40;;;;;;;1.17;1.17;;;;;;;12.70;100.00;95777.44;5052382;28;20475;-71
2021/08/31 02:04:09;;;;;;;1.43;1.33;;;;;;;12.70;100.00;95777.44;5057507;28;20691;-72
2021/08/31 02:06:36;;;;;;;1.00;1.00;;;;;;;12.69;100.00;95775.81;5052892;28;20736;-71
2021/08/31 02:09:05;;;;;;;3.50;2.37;;;;;;;12.72;100.00;95775.44;5058695;28;20276;-71
2021/08/31 02:11:33;;;;;;;1.90;1.80;;;;;;;12.72;100.00;95775.44;5056150;28;20301;-71
2021/08/31 02:14:01;;;;;;;1.10;1.03;;;;;;;12.72;100.00;95774.63;5060959;28;20283;-71
2021/08/31 02:16:30;;;;;;;1.47;1.37;;;;;;;12.75;100.00;95776.88;5060446;28;20233;-71
2021/08/31 02:18:59;;;;;;;1.50;1.40;;;;;;;12.75;100.00;95777.69;5061859;28;20301;-72
2021/08/31 02:21:27;;;;;;;1.03;1.03;;;;;;;12.80;100.00;95777.94;5051405;28;20230;-71
2021/08/31 02:23:55;;;;;;;1.90;1.77;;;;;;;12.82;100.00;95778.56;5057050;28;20313;-71
2021/08/31 02:26:23;;;;;;;2.20;2.10;;;;;;;12.83;100.00;95782.03;5059247;28;20616;-71
2021/08/31 02:28:51;;;;;;;1.90;1.80;;;;;;;12.85;100.00;95779.19;5061395;28;20218;-71
2021/08/31 02:31:21;;;;;;;1.17;1.17;;;;;;;12.82;100.00;95775.91;5062904;28;20237;-71
2021/08/31 02:33:50;;;;;;;1.87;1.50;;;;;;;12.84;100.00;95774.91;5062267;28;20225;-71
2021/08/31 02:36:19;;;;;;;1.60;1.50;;;;;;;12.77;100.00;95767.72;5061166;28;20664;-72
2021/08/31 02:38:48;;;;;;;2.50;2.40;;;;;;;12.76;100.00;95771.38;5056232;28;20587;-71
2021/08/31 02:41:16;;;;;;;2.20;2.10;;;;;;;12.73;100.00;95771.78;5055113;28;20313;-71
2021/08/31 02:43:43;;;;;;;3.73;2.60;;;;;;;12.71;100.00;95776.47;5056912;28;20214;-71
2021/08/31 02:46:12;;;;;;;2.13;2.03;;;;;;;12.71;100.00;95775.63;5059836;28;20301;-71
2021/08/31 02:48:40;;;;;;;2.60;2.47;;;;;;;12.71;100.00;95776.47;5044759;28;20268;-71
2021/08/31 02:51:08;;;;;;;1.87;1.77;;;;;;;12.70;100.00;95782.75;5051916;28;20218;-71
2021/08/31 02:53:38;;;;;;;1.47;1.37;;;;;;;12.72;100.00;95786.03;5056896;28;20234;-71
2021/08/31 02:56:06;;;;;;;2.83;2.73;;;;;;;12.72;100.00;95788.69;5062921;28;20271;-71
2021/08/31 02:58:34;;;;;;;2.90;2.70;;;;;;;12.69;100.00;95786.41;5060849;28;20305;-71
2021/08/31 03:01:15;;;;;;;4.10;2.53;;;;;;;12.60;100.00;95792.88;5054186;28;20699;-71
2021/08/31 03:03:45;;;;;;;1.83;1.73;;;;;;;12.61;100.00;95786.56;5059374;28;20222;-71
2021/08/31 03:06:12;;;;;;;2.30;2.20;;;;;;;12.63;100.00;95791.69;5051548;28;20211;-72
2021/08/31 03:08:42;;;;;;;2.87;2.67;;;;;;;12.64;100.00;95794.13;5060454;28;20251;-71
2021/08/31 03:11:10;;;;;;;2.33;2.03;;;;;;;12.66;100.00;95789.44;5044911;28;20268;-71
2021/08/31 03:13:38;;;;;;;2.53;2.43;;;;;;;12.64;100.00;95794.13;5058038;28;20292;-71
2021/08/31 03:16:05;;;;;;;2.27;2.17;;;;;;;12.69;100.00;95797.00;5053598;28;20223;-71
2021/08/31 03:18:33;;;;;;;1.77;1.67;;;;;;;12.69;100.00;95797.00;5075945;28;20704;-71
2021/08/31 03:21:02;;;;;;;2.53;2.33;;;;;;;12.69;100.00;95791.69;5055953;28;20240;-71
2021/08/31 03:23:30;;;;;;;1.87;1.77;;;;;;;12.68;100.00;95800.66;5056031;28;20239;-71
2021/08/31 03:25:59;;;;;;;2.23;2.13;;;;;;;12.67;100.00;95798.22;5056030;28;20218;-71
2021/08/31 03:28:27;;;;;;;2.00;1.90;;;;;;;12.67;100.00;95799.03;5060642;28;20758;-71
2021/08/31 03:30:56;;;;;;;3.10;2.90;;;;;;;12.66;100.00;95800.03;5064262;28;20217;-72
2021/08/31 03:33:24;;;;;;;2.80;2.60;;;;;;;12.64;100.00;95803.91;5060954;28;20230;-72
2021/08/31 03:35:52;;;;;;;2.10;1.93;;;;;;;12.63;100.00;95799.63;5053132;28;20754;-71
2021/08/31 03:38:20;;;;;;;2.30;2.13;;;;;;;12.59;100.00;95795.72;5047212;28;20253;-71
2021/08/31 03:40:47;;;;;;;3.30;2.80;;;;;;;12.57;100.00;95798.56;5050178;28;20358;-72
2021/08/31 03:43:17;;;;;;;2.37;2.27;;;;;;;12.61;100.00;95797.13;5049674;28;20226;-71
2021/08/31 03:45:45;;;;;;;3.03;2.83;;;;;;;12.66;100.00;95804.53;5055391;28;20222;-71
2021/08/31 03:48:14;;;;;;;2.10;2.00;;;;;;;12.67;100.00;95804.31;5055129;28;20222;-71
2021/08/31 03:50:42;;;;;;;2.30;2.20;;;;;;;12.67;100.00;95799.03;5051427;28;20240;-71
2021/08/31 03:53:10;;;;;;;2.90;2.70;;;;;;;12.64;100.00;95806.56;5063018;28;20600;-71
2021/08/31 03:55:38;;;;;;;3.27;3.07;;;;;;;12.60;100.00;95807.94;5067005;28;20221;-72
2021/08/31 03:58:07;;;;;;;6.13;3.27;;;;;;;12.57;100.00;95809.16;5064484;28;20291;-71
2021/08/31 04:00:36;;;;;;;2.60;2.30;;;;;;;12.60;100.00;95815.88;5064310;28;20306;-71
2021/08/31 04:03:05;;;;;;;2.87;2.67;;;;;;;12.59;100.00;95812.41;5065977;28;20214;-71
2021/08/31 04:05:33;;;;;;;3.50;3.20;;;;;;;12.58;100.00;95810.78;5058676;28;20421;-71
2021/08/31 04:08:01;;;;;;;3.07;2.80;;;;;;;12.63;100.00;95813.69;5052078;28;20720;-71
2021/08/31 04:10:30;;;;;;;2.93;2.83;;;;;;;12.64;100.00;95815.31;5055081;28;20246;-71
2021/08/31 04:12:58;;;;;;;3.23;3.07;;;;;;;12.62;100.00;95822.63;5066226;28;20291;-71
2021/08/31 04:15:26;;;;;;;3.40;2.00;;;;;;;12.62;100.00;95827.94;5059673;28;20325;-71
2021/08/31 04:17:55;;;;;;;2.70;2.50;;;;;;;12.63;100.00;95818.97;5071212;28;20210;-72
2021/08/31 04:20:24;;;;;;;3.23;3.03;;;;;;;12.60;100.00;95824.63;5054246;28;20238;-71
2021/08/31 04:22:51;;;;;;;2.73;2.60;;;;;;;12.58;100.00;95831.94;5053773;28;20251;-71
2021/08/31 04:25:20;;;;;;;2.63;2.43;;;;;;;12.55;100.00;95835.00;5061757;28;20238;-72
2021/08/31 04:27:48;;;;;;;2.43;2.33;;;;;;;12.55;100.00;95842.94;5063675;28;20703;-72
2021/08/31 04:30:16;;;;;;;2.30;2.20;;;;;;;12.55;100.00;95847.41;5052701;28;20246;-71
2021/08/31 04:32:45;;;;;;;2.00;1.90;;;;;;;12.54;100.00;95846.59;5061583;28;20309;-71
2021/08/31 04:35:15;;;;;;;2.73;2.63;;;;;;;12.66;100.00;95850.34;5051202;28;20274;-71
2021/08/31 04:37:43;;;;;;;2.70;2.57;;;;;;;12.63;100.00;95850.75;5056928;28;20360;-71
2021/08/31 04:40:13;;;;;;;2.13;2.03;;;;;;;12.66;100.00;95850.34;5057514;28;20221;-71
2021/08/31 04:42:41;;;;;;;2.60;2.40;;;;;;;12.64;100.00;95847.09;5062505;28;20315;-71
2021/08/31 04:45:09;;;;;;;2.30;2.20;;;;;;;12.60;100.00;95851.09;5047200;28;20252;-71
2021/08/31 04:47:37;;;;;;;2.53;2.33;;;;;;;12.63;100.00;95850.75;5056399;28;20234;-71
2021/08/31 04:50:06;;;;;;;2.73;2.53;;;;;;;12.64;100.00;95857.66;5079371;28;20357;-72
2021/08/31 04:52:36;;;;;;;2.23;2.07;;;;;;;12.61;100.00;95855.38;5057736;28;20743;-71
2021/08/31 04:55:04;;;;;;;3.33;3.03;;;;;;;12.60;100.00;95866.16;5060737;28;20277;-72
2021/08/31 04:57:32;;;;;;;3.73;3.17;;;;;;;12.60;100.00;95861.69;5060047;28;20302;-71
2021/08/31 05:00:00;;;;;;;3.33;3.10;;;;;;;12.62;100.00;95859.69;5061052;28;20678;-71
2021/08/31 05:02:30;;;;;;;5.13;4.83;;;;;;;12.60;100.00;95858.22;5066704;28;20305;-71
2021/08/31 05:04:58;;;;;;;3.43;3.20;;;;;;;12.60;100.00;95853.75;5060089;28;20248;-71
2021/08/31 05:07:27;;;;;;;3.77;3.57;;;;;;;12.56;100.00;95854.34;5060015;28;20222;-71
2021/08/31 05:09:56;;;;;;;5.67;3.77;;;;;;;12.56;100.00;95855.16;5073931;28;20220;-71
2021/08/31 05:12:25;;;;;;;3.20;3.00;;;;;;;12.62;100.00;95857.06;5061785;28;20626;-71
2021/08/31 05:14:53;;;;;;;2.93;2.73;;;;;;;12.68;100.00;95868.69;5056246;28;20317;-71
2021/08/31 05:17:22;;;;;;;2.87;2.70;;;;;;;12.69;100.00;95871.13;5065399;28;20238;-71
2021/08/31 05:19:50;;;;;;;2.40;2.30;;;;;;;12.72;100.00;95868.13;5058038;28;20225;-71
2021/08/31 05:22:18;;;;;;;3.03;2.83;;;;;;;12.78;100.00;95864.69;5065788;28;20218;-71
2021/08/31 05:24:47;;;;;;;2.17;2.07;;;;;;;12.82;100.00;95873.91;5063737;28;20272;-71
2021/08/31 05:27:16;;;;;;;3.70;3.50;;;;;;;12.87;100.00;95872.50;5062883;28;20667;-71
2021/08/31 05:29:44;;;;;;;3.70;3.43;;;;;;;12.89;100.00;95875.75;5061536;28;20737;-71
2021/08/31 05:32:12;;;;;;;1.87;1.77;;;;;;;12.95;100.00;95880.31;5047577;28;20222;-71
2021/08/31 05:34:41;;;;;;;3.50;3.20;;;;;;;13.00;100.00;95880.56;5049408;28;20809;-71
2021/08/31 05:37:10;;;;;;;3.17;2.97;;;;;;;13.06;100.00;95877.09;5057085;28;20234;-71
2021/08/31 05:39:38;;;;;;;3.33;3.13;;;;;;;13.05;100.00;95886.06;5060475;28;20280;-71
2021/08/31 05:42:09;;;;;;;3.50;3.30;;;;;;;12.99;100.00;95884.22;5056181;28;20679;-71
2021/08/31 05:44:40;;;;;;;3.70;3.40;;;;;;;12.97;100.00;95889.69;5065431;28;20230;-71
2021/08/31 05:47:09;;;;;;;4.07;3.70;;;;;;;13.03;100.00;95888.09;5065256;28;20675;-71
2021/08/31 05:49:37;;;;;;;3.10;2.83;;;;;;;13.01;100.00;95888.31;5057070;28;20313;-71
2021/08/31 05:52:05;;;;;;;3.90;2.90;;;;;;;13.05;100.00;95891.38;5059596;28;20218;-71
2021/08/31 05:54:33;;;;;;;4.43;4.03;;;;;;;13.04;100.00;95895.84;5045971;28;20219;-71
2021/08/31 05:57:06;;;;;;;3.83;3.53;;;;;;;13.09;100.00;95897.94;5060190;28;20309;-70
2021/08/31 05:59:34;;;;;;;3.70;3.47;;;;;;;13.14;100.00;95905.28;5053844;28;20723;-70
2021/08/31 06:02:03;;;;;;;4.10;3.80;;;;;;;13.18;100.00;95902.06;5053806;28;20256;-71
2021/08/31 06:04:37;;;;;;;3.43;3.23;;;;;;;13.23;100.00;95904.97;5056331;28;20280;-71
2021/08/31 06:07:06;;;;;;;4.07;3.77;;;;;;;13.28;100.00;95897.28;5057120;28;20232;-71
2021/08/31 06:09:36;;;;;;;3.33;3.13;;;;;;;13.31;100.00;95899.53;5056907;28;20272;-71
2021/08/31 06:12:05;;;;;;;4.03;3.83;;;;;;;13.31;100.00;95896.06;5064395;28;20256;-71
2021/08/31 06:14:34;;;;;;;3.87;3.57;;;;;;;13.29;100.00;95898.91;5063057;28;20318;-71
2021/08/31 06:17:04;;;;;;;4.13;3.47;;;;;;;13.50;100.00;95897.19;5058846;28;20525;-71
2021/08/31 06:19:33;;;;;;;3.90;3.63;;;;;;;13.37;100.00;95904.06;5056444;28;20234;-69
2021/08/31 06:22:01;;;;;;;4.40;4.20;;;;;;;13.36;100.00;95905.06;5050084;28;20214;-69
2021/08/31 06:24:29;;;;;;;3.30;3.10;;;;;;;13.30;100.00;95905.84;5048419;28;20286;-68
2021/08/31 06:26:57;;;;;;;5.00;4.60;;;;;;;13.35;100.00;95914.03;5065487;28;20297;-69
2021/08/31 06:29:25;;;;;;;3.93;3.37;;;;;;;13.30;100.00;95916.44;5058757;28;20307;-69
2021/08/31 06:31:53;;;;;;;3.40;3.20;;;;;;;13.28;100.00;95918.47;5051022;28;20210;-68
2021/08/31 06:34:23;;;;;;;3.57;3.27;;;;;;;13.32;100.00;95922.38;5052555;28;20246;-69
2021/08/31 06:36:51;;;;;;;3.70;3.50;;;;;;;13.32;100.00;95924.19;5051091;28;20215;-69
2021/08/31 06:39:19;;;;;;;4.20;3.97;;;;;;;13.36;100.00;95920.97;5060970;28;20229;-69
2021/08/31 06:41:48;;;;;;;2.60;2.47;;;;;;;13.38;100.00;95926.91;5060185;28;20230;-68
2021/08/31 06:44:16;;;;;;;5.63;4.07;;;;;;;13.43;100.00;95921.00;5053283;28;20222;-69
2021/08/31 06:46:44;;;;;;;3.67;3.37;;;;;;;13.44;100.00;95927.13;5046492;28;20211;-68
2021/08/31 06:49:13;;;;;;;3.70;3.50;;;;;;;13.52;100.00;95926.97;5050076;28;20742;-68
2021/08/31 06:51:43;;;;;;;4.77;4.47;;;;;;;13.65;100.00;95930.53;5054266;28;20836;-69
2021/08/31 06:54:11;;;;;;;3.03;2.83;;;;;;;13.81;100.00;95934.69;5060032;28;20314;-68
2021/08/31 06:56:39;;;;;;;3.77;3.47;;;;;;;13.82;99.31;95936.31;5055059;28;20710;-69
2021/08/31 06:59:07;;;;;;;2.67;2.57;;;;;;;13.86;99.27;95926.94;5062742;28;20246;-68
2021/08/31 07:01:35;;;;;;;3.23;3.03;;;;;;;13.88;99.13;95930.22;5077422;28;20258;-69
2021/08/31 07:04:04;;;;;;;2.63;2.43;;;;;;;13.89;99.10;95939.81;5052994;28;20271;-67
2021/08/31 07:06:32;;;;;;;2.20;2.10;;;;;;;13.94;99.60;95934.72;5054163;28;20317;-68
2021/08/31 07:09:01;;;;;;;3.20;3.00;;;;;;;13.97;99.69;95938.00;5058552;28;20257;-69
2021/08/31 07:11:29;;;;;;;3.17;2.97;;;;;;;13.96;99.21;95934.53;5055380;28;20230;-68
2021/08/31 07:13:58;;;;;;;3.13;2.93;;;;;;;14.02;99.48;95936.41;5060056;28;20226;-68
2021/08/31 07:16:26;;;;;;;2.97;2.77;;;;;;;14.03;99.01;95939.88;5062741;28;20250;-68
2021/08/31 07:18:54;;;;;;;2.60;2.50;;;;;;;14.03;99.20;95938.03;5051869;28;20222;-67
2021/08/31 07:21:22;;;;;;;3.07;2.30;;;;;;;14.03;99.49;95945.19;5053769;28;20239;-69
2021/08/31 07:23:50;;;;;;;2.07;1.97;;;;;;;14.00;99.59;95943.75;5057066;28;20706;-69
2021/08/31 07:26:20;;;;;;;1.97;1.87;;;;;;;14.01;99.61;95944.56;5060731;28;20214;-69
2021/08/31 07:28:48;;;;;;;2.63;2.53;;;;;;;13.98;99.16;95950.25;5048799;28;20304;-69
2021/08/31 07:31:24;;;;;;;2.83;1.90;;;;;;;13.95;99.41;95946.97;5054841;28;20234;-69
2021/08/31 07:33:53;;;;;;;1.80;1.70;;;;;;;13.98;99.61;95948.41;5050039;28;20328;-68
2021/08/31 07:36:22;;;;;;;2.60;2.50;;;;;;;14.01;99.14;95955.19;5054446;28;20273;-69
2021/08/31 07:38:51;;;;;;;2.80;2.37;;;;;;;14.05;99.04;95956.41;5060902;28;20218;-69
2021/08/31 07:41:21;;;;;;;2.67;2.57;;;;;;;14.17;98.84;95954.81;5052832;28;20219;-68
2021/08/31 07:43:49;;;;;;;2.47;2.37;;;;;;;14.23;98.26;95954.03;5062304;28;20255;-68
2021/08/31 07:46:17;;;;;;;2.77;2.57;;;;;;;14.49;96.24;95964.75;5060722;28;20233;-68
2021/08/31 07:48:46;;;;;;;1.67;1.57;;;;;;;14.42;96.68;95969.19;5042926;28;20781;-68
2021/08/31 07:51:14;;;;;;;2.00;1.90;;;;;;;14.47;96.30;95968.66;5050480;28;20320;-68
2021/08/31 07:53:42;;;;;;;2.27;2.07;;;;;;;14.51;95.89;95973.34;5056892;28;20316;-69
2021/08/31 07:56:11;;;;;;;2.17;2.07;;;;;;;14.62;96.07;95976.41;5061384;28;20218;-68
2021/08/31 07:58:40;;;;;;;2.30;2.10;;;;;;;14.72;95.16;95969.72;5061219;28;20234;-68
2021/08/31 08:01:08;;;;;;;2.60;2.20;;;;;;;14.87;94.93;95982.00;5057189;28;20702;-68
2021/08/31 08:03:37;;;;;;;2.77;2.67;;;;;;;14.94;94.51;95973.00;5061282;28;20215;-69
2021/08/31 08:06:04;;;;;;;2.77;2.57;;;;;;;14.96;93.81;95976.28;5047024;28;20287;-69
2021/08/31 08:08:32;;;;;;;2.40;2.30;;;;;;;14.97;93.60;95977.91;5059826;28;20294;-68
2021/08/31 08:11:01;;;;;;;2.20;2.10;;;;;;;14.98;93.47;95984.84;5057336;28;20276;-69
2021/08/31 08:13:29;;;;;;;2.50;2.30;;;;;;;15.00;93.59;95982.84;5050421;28;20243;-68
2021/08/31 08:15:58;;;;;;;2.50;2.40;;;;;;;14.95;93.98;95990.59;5047595;28;20226;-67
2021/08/31 08:18:26;;;;;;;5.20;2.13;;;;;;;14.92;93.66;95991.00;5058029;28;20480;-68
2021/08/31 08:20:54;;;;;;;2.17;2.07;;;;;;;14.91;93.59;95989.38;5047126;28;20225;-68
2021/08/31 08:23:23;;;;;;;3.07;2.23;;;;;;;14.86;93.49;95986.50;5052075;28;20260;-68
2021/08/31 08:25:51;;;;;;;2.77;2.57;;;;;;;14.77;94.40;95990.34;5061723;28;20245;-68
2021/08/31 08:28:22;;;;;;;2.60;2.43;;;;;;;14.86;94.39;95989.16;5063196;28;20244;-69
2021/08/31 08:30:51;;;;;;;2.97;2.80;;;;;;;14.92;95.01;95985.69;5052704;28;20407;-69
2021/08/31 08:33:22;;;;;;;4.47;2.20;;;;;;;15.01;94.65;95988.97;5050381;28;20247;-69
2021/08/31 08:35:50;;;;;;;2.70;2.50;;;;;;;15.19;94.03;95996.34;5054388;28;20279;-69
2021/08/31 08:38:19;;;;;;;3.23;3.03;;;;;;;15.30;94.38;95993.06;5063905;28;20654;-69
2021/08/31 08:40:47;;;;;;;2.60;2.50;;;;;;;15.36;92.96;95998.41;5056999;28;20265;-69
2021/08/31 08:43:15;;;;;;;4.27;3.87;;;;;;;15.44;92.28;95996.53;5048668;28;20303;-68
2021/08/31 08:45:46;;;;;;;3.07;2.87;;;;;;;15.59;91.86;96003.28;5056352;28;20222;-69
2021/08/31 08:48:23;;;;;;;3.17;2.93;;;;;;;15.79;91.93;96007.78;5062724;28;20222;-69
2021/08/31 08:50:54;;;;;;;2.93;2.73;;;;;;;15.98;90.89;96001.59;5061140;28;20257;-68
2021/08/31 08:53:25;;;;;;;3.03;2.83;;;;;;;16.01;89.00;96000.38;5057966;28;20242;-68
2021/08/31 08:55:55;;;;;;;2.63;2.53;;;;;;;16.02;89.32;96000.16;5058958;28;20238;-68
2021/08/31 08:58:23;;;;;;;2.87;2.63;;;;;;;16.11;90.44;96006.06;5059867;28;20309;-68
2021/08/31 09:01:01;;;;;;;2.17;2.07;;;;;;;16.19;91.26;96009.31;5072031;28;20214;-68
2021/08/31 09:03:33;;;;;;;1.97;1.87;;;;;;;16.27;91.74;96012.75;5056684;28;20242;-68
2021/08/31 09:06:11;;;;;;;1.63;1.50;;;;;;;16.26;89.30;96014.59;5059530;28;20230;-69
2021/08/31 09:08:42;;;;;;;1.70;1.60;;;;;;;16.09;89.72;96008.94;5055264;28;24791;-68
2021/08/31 09:11:19;;;;;;;2.20;2.10;;;;;;;16.08;89.99;96012.59;5064177;28;20261;-69
2021/08/31 09:13:48;;;;;;;2.10;2.00;;;;;;;16.02;90.25;96013.47;5051818;28;20230;-69
2021/08/31 09:16:30;;;;;;;1.10;1.10;;;;;;;16.13;90.56;96015.47;5046724;28;20273;-69
2021/08/31 09:19:00;;;;;;;2.03;1.93;;;;;;;16.57;90.25;96011.22;5046219;28;20215;-69
2021/08/31 09:21:29;;;;;;;2.57;2.47;;;;;;;16.79;86.35;96009.06;5056639;28;20307;-69
2021/08/31 09:23:59;;;;;;;2.83;2.73;;;;;;;17.16;85.06;96004.72;5058194;28;20321;-69
2021/08/31 09:26:37;;;;;;;1.93;1.83;;;;;;;17.62;85.64;96008.84;5059214;28;20231;-69
2021/08/31 09:29:14;;;;;;;1.97;1.87;;;;;;;17.94;82.07;96003.47;5054365;28;20214;-67
2021/08/31 09:31:51;;;;;;;3.37;3.10;;;;;;;18.16;83.09;96004.66;5048570;28;20230;-67
2021/08/31 09:34:40;;;;;;;2.87;2.67;;;;;;;18.34;82.56;96007.31;5045688;28;20306;-67
2021/08/31 09:37:34;;;;;;;2.20;1.87;;;;;;;18.05;79.29;96014.22;5054902;28;20227;-69
2021/08/31 09:40:13;;;;;;;2.27;2.17;;;;;;;17.76;80.41;96015.75;5048120;28;20320;-67
2021/08/31 09:43:11;;;;;;;1.83;1.73;;;;;;;17.91;82.13;96021.53;5054714;28;20230;-67
2021/08/31 09:45:42;;;;;;;3.57;2.27;;;;;;;18.35;82.14;96014.28;5017521;28;20730;-69
2021/08/31 09:48:13;;;;;;;1.37;1.33;;;;;;;18.37;79.75;96014.88;5056864;28;20442;-69
2021/08/31 09:50:44;;;;;;;2.20;2.10;;;;;;;18.35;80.46;96006.28;5056332;28;20281;-69
2021/08/31 09:53:17;;;;;;;2.50;2.30;;;;;;;18.77;79.95;96009.06;5059717;28;20275;-69
2021/08/31 09:55:47;;;;;;;2.07;1.97;;;;;;;19.42;79.33;96001.09;5054788;28;20321;-69
2021/08/31 09:58:18;;;;;;;2.60;2.47;;;;;;;19.42;75.17;95998.44;5051294;28;20214;-69
2021/08/31 10:00:48;;;;;;;2.53;2.43;;;;;;;19.16;76.05;96002.34;5063148;28;20303;-68
2021/08/31 10:03:17;;;;;;;3.03;1.90;;;;;;;19.56;78.53;96004.41;5052402;28;20313;-67
2021/08/31 10:05:48;;;;;;;2.10;2.00;;;;;;;20.40;78.90;96004.94;5045193;28;20314;-69
2021/08/31 10:08:18;;;;;;;2.33;2.13;;;;;;;20.98;69.32;96003.94;5043751;28;20226;-68
2021/08/31 10:10:49;;;;;;;1.77;1.67;;;;;;;21.60;69.18;96003.94;5045262;28;20318;-69
2021/08/31 10:13:20;;;;;;;1.37;1.37;;;;;;;21.61;70.74;96004.75;5052487;28;20235;-69
2021/08/31 10:15:51;;;;;;;2.57;1.83;;;;;;;21.24;68.15;96010.56;5053533;28;20287;-69
2021/08/31 10:18:21;;;;;;;2.00;1.90;;;;;;;20.68;69.93;96009.53;5048590;28;20245;-69
2021/08/31 10:20:53;;;;;;;2.37;2.27;;;;;;;20.55;70.50;96015.97;5054851;28;20226;-69
2021/08/31 10:23:27;;;;;;;1.87;1.77;;;;;;;21.15;70.39;96015.53;5056496;28;20222;-68
2021/08/31 10:26:30;;;;;;;1.70;1.60;;;;;;;21.10;70.12;96023.47;5061358;28;20250;-68
2021/08/31 10:29:29;;;;;;;1.60;1.50;;;;;;;20.68;69.36;96022.97;5044114;28;20503;-69
2021/08/31 10:32:00;;;;;;;2.03;1.93;;;;;;;20.63;71.33;96020.16;5044827;28;20641;-69
2021/08/31 10:34:43;;;;;;;2.30;2.20;;;;;;;20.66;69.86;96023.16;5044805;28;20280;-69
2021/08/31 10:37:17;;;;;;;1.33;1.23;;;;;;;20.72;71.31;96026.78;5053226;28;20309;-68
2021/08/31 10:39:49;;;;;;;2.27;2.17;;;;;;;20.58;69.96;96020.88;5062502;28;20271;-69
2021/08/31 10:42:40;;;;;;;1.20;1.20;;;;;;;20.42;69.60;96019.72;5051763;28;20226;-69
2021/08/31 10:45:27;;;;;;;3.70;2.83;;;;;;;20.05;71.29;96029.91;5045137;28;20215;-69
2021/08/31 10:47:55;;;;;;;2.90;2.73;;;;;;;20.06;72.33;96020.81;5052579;28;20226;-68
2021/08/31 10:50:25;;;;;;;2.20;2.10;;;;;;;19.84;71.51;96031.31;5049471;28;20223;-69
2021/08/31 10:53:04;;;;;;;3.23;2.73;;;;;;;19.81;72.74;96030.97;5059059;28;20560;-70
2021/08/31 10:55:45;;;;;;;3.03;2.17;;;;;;;19.71;72.54;96028.03;5059960;28;20313;-69
2021/08/31 10:58:33;;;;;;;2.97;1.50;;;;;;;19.82;72.50;96029.91;5049386;28;20318;-68
2021/08/31 11:01:01;;;;;;;1.17;1.17;;;;;;;20.04;73.76;96017.56;5052226;28;20222;-69
2021/08/31 11:03:37;;;;;;;2.50;2.40;;;;;;;20.24;72.40;96019.06;5046532;28;20342;-69
2021/08/31 11:06:30;;;;;;;1.70;1.60;;;;;;;19.98;70.61;96023.84;5053055;28;20639;-69
2021/08/31 11:09:20;;;;;;;2.17;1.97;;;;;;;19.69;70.60;96030.97;5042709;28;20250;-68
2021/08/31 11:12:00;;;;;;;3.07;2.23;;;;;;;19.48;72.59;96035.00;5054019;28;20248;-69
2021/08/31 11:14:42;;;;;;;1.70;1.60;;;;;;;19.15;74.91;96038.16;5048695;28;20301;-67
2021/08/31 11:17:11;;;;;;;2.37;2.17;;;;;;;19.09;76.18;96043.59;5058631;28;20226;-69
2021/08/31 11:19:39;;;;;;;1.80;1.70;;;;;;;19.06;76.59;96036.84;5046088;28;20226;-68
2021/08/31 11:22:08;;;;;;;1.77;1.67;;;;;;;19.09;76.51;96043.59;5054980;28;20260;-69
2021/08/31 11:24:37;;;;;;;1.13;1.03;;;;;;;19.10;75.43;96037.19;5063015;28;20317;-69
2021/08/31 11:27:06;;;;;;;1.40;1.30;;;;;;;19.12;75.22;96040.47;5051685;28;20242;-69
2021/08/31 11:29:34;;;;;;;1.40;1.30;;;;;;;19.23;74.66;96047.72;5043296;28;20368;-69
2021/08/31 11:32:04;;;;;;;1.57;1.47;;;;;;;19.23;73.74;96053.06;5051771;28;20308;-69
2021/08/31 11:34:33;;;;;;;1.40;1.30;;;;;;;19.27;74.04;96051.56;5047644;28;20761;-68
2021/08/31 11:37:05;;;;;;;1.13;1.13;;;;;;;19.43;74.11;96063.47;5052674;28;20687;-69
2021/08/31 11:39:35;;;;;;;1.47;1.37;;;;;;;19.54;73.82;96054.66;5056642;28;20305;-69
2021/08/31 11:42:13;;;;;;;6.87;2.73;;;;;;;19.72;74.10;96057.28;5059916;28;20854;-69
2021/08/31 11:44:57;;;;;;;2.00;1.90;;;;;;;19.91;74.50;96066.00;5056313;28;20321;-69